createdAt,value
2022-08-04T00:00:24.351Z,14.70
2022-08-04T00:03:22.126Z,14.90
2022-08-04T00:06:06.433Z,14.70
2022-08-04T00:08:46.697Z,14.00
2022-08-04T00:11:21.120Z,13.30
2022-08-04T00:14:03.643Z,12.60
2022-08-04T00:16:38.880Z,13.80
2022-08-04T00:19:44.751Z,12.00
2022-08-04T00:22:13.809Z,11.90
2022-08-04T00:24:42.000Z,12.00
2022-08-04T00:27:09.529Z,12.90
2022-08-04T00:29:39.717Z,12.80
2022-08-04T00:32:09.047Z,12.40
2022-08-04T00:34:36.855Z,12.00
2022-08-04T00:37:06.661Z,12.10
2022-08-04T00:39:34.791Z,10.80
2022-08-04T00:42:49.474Z,11.90
2022-08-04T00:46:09.485Z,11.50
2022-08-04T00:48:51.339Z,10.50
2022-08-04T00:51:47.041Z,10.30
2022-08-04T00:54:42.063Z,10.60
2022-08-04T00:57:39.122Z,11.10
2022-08-04T01:00:13.319Z,12.30
2022-08-04T01:02:51.291Z,11.50
2022-08-04T01:05:37.892Z,11.30
2022-08-04T01:08:16.770Z,11.30
2022-08-04T01:11:00.561Z,11.40
2022-08-04T01:14:05.213Z,10.90
2022-08-04T01:16:34.309Z,11.80
2022-08-04T01:19:07.887Z,12.50
2022-08-04T01:21:52.516Z,11.90
2022-08-04T01:24:51.646Z,13.30
2022-08-04T01:27:36.226Z,12.70
2022-08-04T01:30:06.398Z,11.20
2022-08-04T01:33:00.992Z,11.70
2022-08-04T01:35:46.888Z,11.60
2022-08-04T01:38:39.542Z,11.00
2022-08-04T01:41:14.741Z,10.90
2022-08-04T01:43:44.502Z,10.60
2022-08-04T01:46:14.469Z,10.40
2022-08-04T01:48:45.405Z,10.30
2022-08-04T01:51:12.997Z,9.90
2022-08-04T01:53:43.988Z,10.00
2022-08-04T01:56:12.487Z,9.90
2022-08-04T01:58:41.080Z,9.60
2022-08-04T02:01:12.401Z,10.40
2022-08-04T02:04:20.284Z,10.10
2022-08-04T02:06:38.062Z,9.60
2022-08-04T02:09:22.159Z,9.20
2022-08-04T02:12:15.834Z,9.90
2022-08-04T02:14:59.726Z,9.70
2022-08-04T02:17:45.478Z,10.10
2022-08-04T02:20:24.295Z,9.00
2022-08-04T02:23:15.292Z,11.10
2022-08-04T02:25:58.073Z,11.50
2022-08-04T02:28:40.199Z,12.40
2022-08-04T02:31:39.515Z,11.90
2022-08-04T02:34:21.232Z,9.90
2022-08-04T02:36:48.719Z,12.10
2022-08-04T02:39:21.190Z,9.50
2022-08-04T02:41:50.456Z,9.90
2022-08-04T02:44:26.846Z,9.20
2022-08-04T02:46:55.204Z,10.00
2022-08-04T02:49:24.138Z,8.80
2022-08-04T02:51:54.476Z,9.30
2022-08-04T02:54:33.566Z,10.10
2022-08-04T02:57:02.468Z,10.00
2022-08-04T03:00:08.350Z,9.90
2022-08-04T03:02:48.249Z,10.00
2022-08-04T03:06:01.824Z,9.20
2022-08-04T03:08:49.698Z,9.50
2022-08-04T03:11:54.754Z,9.00
2022-08-04T03:15:31.257Z,9.10
2022-08-04T03:18:39.280Z,9.40
2022-08-04T03:21:53.191Z,10.90
2022-08-04T03:24:52.397Z,10.50
2022-08-04T03:27:56.572Z,9.90
2022-08-04T03:30:58.206Z,10.20
2022-08-04T03:33:39.694Z,9.60
2022-08-04T03:37:11.929Z,10.50
2022-08-04T03:40:13.037Z,11.20
2022-08-04T03:43:57.652Z,10.40
2022-08-04T03:47:02.124Z,10.60
2022-08-04T03:49:58.881Z,11.40
2022-08-04T03:53:15.878Z,10.80
2022-08-04T03:56:13.217Z,10.60
2022-08-04T03:59:16.189Z,9.90
2022-08-04T04:02:09.678Z,10.70
2022-08-04T04:05:19.124Z,11.60
2022-08-04T04:08:19.323Z,10.10
2022-08-04T04:11:19.911Z,11.30
2022-08-04T04:14:26.399Z,11.20
2022-08-04T04:17:20.658Z,12.30
2022-08-04T04:20:22.545Z,12.80
2022-08-04T04:23:24.520Z,12.90
2022-08-04T04:26:24.783Z,11.90
2022-08-04T04:29:17.717Z,14.20
2022-08-04T04:32:14.771Z,13.20
2022-08-04T04:35:08.993Z,14.30
2022-08-04T04:38:02.980Z,13.20
2022-08-04T04:40:56.212Z,12.80
2022-08-04T04:43:50.786Z,13.80
2022-08-04T04:46:59.698Z,13.50
2022-08-04T04:49:44.939Z,13.80
2022-08-04T04:52:28.400Z,14.50
2022-08-04T04:55:14.419Z,13.70
2022-08-04T04:57:53.593Z,14.90
2022-08-04T05:00:26.580Z,14.30
2022-08-04T05:03:32.597Z,14.20
2022-08-04T05:06:37.603Z,13.60
2022-08-04T05:09:32.261Z,11.30
2022-08-04T05:14:32.367Z,12.00
2022-08-04T05:15:31.720Z,11.30
2022-08-04T05:18:02.742Z,10.70
2022-08-04T05:20:38.782Z,11.30
2022-08-04T05:23:15.640Z,10.70
2022-08-04T05:25:59.190Z,10.10
2022-08-04T05:28:55.296Z,10.00
2022-08-04T05:31:29.212Z,9.20
2022-08-04T05:34:08.080Z,9.00
2022-08-04T05:36:44.189Z,9.10
2022-08-04T05:39:17.627Z,8.40
2022-08-04T05:41:55.217Z,9.00
2022-08-04T05:44:26.549Z,8.40
2022-08-04T05:46:58.240Z,8.70
2022-08-04T05:49:28.294Z,9.20
2022-08-04T05:52:00.517Z,8.80
2022-08-04T05:54:30.237Z,8.30
2022-08-04T05:56:58.145Z,8.40
2022-08-04T05:59:26.729Z,7.80
2022-08-04T06:01:58.087Z,7.50
2022-08-04T06:04:37.245Z,8.30
2022-08-04T06:07:05.064Z,8.30
2022-08-04T06:09:35.585Z,8.20
2022-08-04T06:12:09.505Z,7.60
2022-08-04T06:14:42.191Z,7.80
2022-08-04T06:18:32.116Z,7.60
2022-08-04T06:20:18.962Z,7.30
2022-08-04T06:26:11.106Z,7.20
2022-08-04T06:28:42.860Z,7.90
2022-08-04T06:32:29.698Z,8.00
2022-08-04T06:34:02.638Z,8.20
2022-08-04T06:36:32.532Z,7.80
2022-08-04T06:39:01.315Z,7.40
2022-08-04T06:41:30.577Z,7.20
2022-08-04T06:44:05.364Z,7.20
2022-08-04T06:46:35.744Z,7.50
2022-08-04T06:49:03.585Z,7.20
2022-08-04T06:51:38.930Z,7.30
2022-08-04T06:54:11.904Z,7.10
2022-08-04T06:56:40.557Z,7.70
2022-08-04T06:59:11.084Z,7.20
2022-08-04T07:01:38.555Z,7.80
2022-08-04T07:04:06.318Z,7.90
2022-08-04T07:06:33.445Z,7.20
2022-08-04T07:09:00.736Z,6.60
2022-08-04T07:11:28.646Z,6.50
2022-08-04T07:14:06.769Z,6.50
2022-08-04T07:16:34.843Z,5.90
2022-08-04T07:19:10.279Z,5.60
2022-08-04T07:21:38.309Z,6.20
2022-08-04T07:24:05.418Z,6.00
2022-08-04T07:26:32.128Z,5.40
2022-08-04T07:28:59.645Z,6.20
2022-08-04T07:31:34.278Z,5.90
2022-08-04T07:34:17.372Z,6.20
2022-08-04T07:36:57.900Z,5.70
2022-08-04T07:39:29.735Z,5.50
2022-08-04T07:42:01.580Z,5.20
2022-08-04T07:44:30.741Z,5.50
2022-08-04T07:46:57.538Z,5.10
2022-08-04T07:49:55.607Z,5.10
2022-08-04T07:52:14.305Z,5.10
2022-08-04T07:54:42.200Z,4.90
2022-08-04T07:57:08.965Z,5.00
2022-08-04T07:59:50.156Z,5.10
2022-08-04T08:02:21.828Z,4.90
2022-08-04T08:04:49.288Z,4.50
2022-08-04T08:07:15.938Z,5.30
2022-08-04T08:09:42.471Z,4.60
2022-08-04T08:12:35.646Z,4.90
2022-08-04T08:14:56.726Z,5.00
2022-08-04T08:17:23.486Z,5.50
2022-08-04T08:19:51.252Z,5.60
2022-08-04T08:22:17.768Z,5.30
2022-08-04T08:24:44.776Z,5.20
2022-08-04T08:27:11.310Z,5.40
2022-08-04T08:29:38.436Z,5.40
2022-08-04T08:32:13.136Z,5.30
2022-08-04T08:34:41.452Z,5.20
2022-08-04T08:37:30.342Z,5.10
2022-08-04T08:40:32.486Z,5.40
2022-08-04T08:44:06.347Z,5.20
2022-08-04T08:47:11.829Z,4.90
2022-08-04T08:50:31.433Z,4.90
2022-08-04T08:53:51.617Z,5.00
2022-08-04T08:57:03.220Z,5.40
2022-08-04T09:00:09.634Z,6.00
2022-08-04T09:03:10.335Z,5.90
2022-08-04T09:06:08.585Z,5.10
2022-08-04T09:09:30.592Z,5.00
2022-08-04T09:12:20.147Z,5.60
2022-08-04T09:15:26.048Z,4.80
2022-08-04T09:18:02.496Z,5.10
2022-08-04T09:20:40.602Z,5.10
2022-08-04T09:23:21.830Z,5.30
2022-08-04T09:25:57.146Z,5.10
2022-08-04T09:28:52.312Z,5.00
2022-08-04T09:31:20.915Z,5.20
2022-08-04T09:34:10.185Z,4.90
2022-08-04T09:36:49.478Z,4.80
2022-08-04T09:40:01.200Z,4.60
2022-08-04T09:42:55.248Z,4.50
2022-08-04T09:45:43.386Z,5.00
2022-08-04T09:48:24.978Z,4.80
2022-08-04T09:50:59.195Z,4.60
2022-08-04T09:54:05.801Z,5.20
2022-08-04T09:57:01.497Z,4.60
2022-08-04T09:59:41.445Z,4.80
2022-08-04T10:02:15.328Z,5.00
2022-08-04T10:04:44.017Z,4.80
2022-08-04T10:07:33.229Z,4.40
2022-08-04T10:10:31.986Z,4.70
2022-08-04T10:13:16.528Z,4.60
2022-08-04T10:16:20.569Z,4.50
2022-08-04T10:19:23.417Z,4.40
2022-08-04T10:22:29.063Z,4.50
2022-08-04T10:26:05.876Z,4.50
2022-08-04T10:28:31.220Z,4.60
2022-08-04T10:31:10.114Z,4.30
2022-08-04T10:33:50.157Z,4.40
2022-08-04T10:36:22.574Z,4.10
2022-08-04T10:39:22.207Z,4.20
2022-08-04T10:42:30.741Z,4.00
2022-08-04T10:45:23.475Z,4.20
2022-08-04T10:48:01.557Z,3.90
2022-08-04T10:50:29.877Z,4.10
2022-08-04T10:53:25.925Z,3.90
2022-08-04T10:56:05.577Z,4.10
2022-08-04T10:58:55.482Z,4.00
2022-08-04T11:02:01.437Z,4.10
2022-08-04T11:04:44.797Z,3.90
2022-08-04T11:07:14.476Z,4.10
2022-08-04T11:09:44.601Z,3.80
2022-08-04T11:12:24.325Z,4.20
2022-08-04T11:15:02.074Z,3.90
2022-08-04T11:17:36.372Z,3.70
2022-08-04T11:20:35.941Z,3.50
2022-08-04T11:23:17.297Z,4.10
2022-08-04T11:26:04.918Z,3.90
2022-08-04T11:29:20.263Z,4.00
2022-08-04T11:31:51.982Z,3.70
2022-08-04T11:34:27.313Z,3.70
2022-08-04T11:37:14.445Z,3.40
2022-08-04T11:39:58.470Z,4.10
2022-08-04T11:42:38.899Z,3.60
2022-08-04T11:45:16.901Z,3.90
2022-08-04T11:47:58.094Z,3.70
2022-08-04T11:50:41.627Z,3.70
2022-08-04T11:53:15.633Z,3.80
2022-08-04T11:56:08.055Z,3.60
2022-08-04T11:58:32.460Z,3.70
2022-08-04T12:01:21.852Z,3.70
2022-08-04T12:04:16.988Z,3.60
2022-08-04T12:07:30.054Z,3.30
2022-08-04T12:10:08.707Z,3.80
2022-08-04T12:12:45.821Z,3.70
2022-08-04T12:15:32.953Z,3.70
2022-08-04T12:18:22.841Z,3.70
2022-08-04T12:21:00.147Z,3.80
2022-08-04T12:23:38.255Z,3.50
2022-08-04T12:26:17.337Z,3.70
2022-08-04T12:31:45.386Z,3.90
2022-08-04T12:34:32.180Z,3.60
2022-08-04T12:37:59.641Z,3.90
2022-08-04T12:40:33.809Z,3.90
2022-08-04T12:43:15.027Z,3.80
2022-08-04T12:45:48.602Z,4.00
2022-08-04T12:48:21.242Z,3.50
2022-08-04T12:50:54.214Z,3.70
2022-08-04T12:53:31.872Z,3.60
2022-08-04T12:56:02.391Z,3.80
2022-08-04T12:58:43.014Z,3.60
2022-08-04T13:02:11.224Z,3.50
2022-08-04T13:04:29.216Z,3.50
2022-08-04T13:07:13.925Z,4.00
2022-08-04T13:09:41.139Z,3.90
2022-08-04T13:12:19.344Z,3.80
2022-08-04T13:14:51.542Z,3.60
2022-08-04T13:17:19.853Z,4.10
2022-08-04T13:19:54.937Z,3.60
2022-08-04T13:22:30.202Z,3.80
2022-08-04T13:26:40.535Z,3.70
2022-08-04T13:27:48.676Z,3.80
2022-08-04T13:30:23.604Z,3.70
2022-08-04T13:32:57.507Z,4.00
2022-08-04T13:35:55.459Z,3.90
2022-08-04T13:38:15.525Z,4.00
2022-08-04T13:40:44.000Z,3.80
2022-08-04T13:44:15.821Z,3.90
2022-08-04T13:46:27.752Z,3.80
2022-08-04T13:49:26.063Z,3.80
2022-08-04T13:51:57.749Z,3.60
2022-08-04T13:54:35.914Z,3.80
2022-08-04T13:57:29.363Z,3.90
2022-08-04T14:00:06.389Z,3.60
2022-08-04T14:03:01.828Z,3.50
2022-08-04T14:05:35.296Z,3.90
2022-08-04T14:08:31.316Z,3.70
2022-08-04T14:10:59.259Z,3.70
2022-08-04T14:13:41.474Z,4.10
2022-08-04T14:16:20.990Z,4.30
2022-08-04T14:18:58.202Z,4.30
2022-08-04T14:21:24.949Z,4.00
2022-08-04T14:23:57.544Z,4.10
2022-08-04T14:26:34.182Z,3.90
2022-08-04T14:29:27.890Z,3.90
2022-08-04T14:32:12.569Z,3.80
2022-08-04T14:34:52.245Z,3.70
2022-08-04T14:37:23.002Z,3.80
2022-08-04T14:40:18.136Z,3.60
2022-08-04T14:42:54.877Z,3.50
2022-08-04T14:45:53.997Z,3.80
2022-08-04T14:48:22.971Z,3.70
2022-08-04T14:50:50.930Z,3.90
2022-08-04T14:53:26.358Z,3.70
2022-08-04T14:55:58.877Z,3.90
2022-08-04T14:58:32.910Z,3.90
2022-08-04T15:01:10.617Z,3.70
2022-08-04T15:03:50.487Z,3.60
2022-08-04T15:06:26.383Z,3.90
2022-08-04T15:08:56.881Z,3.60
2022-08-04T15:11:24.760Z,3.80
2022-08-04T15:13:57.620Z,3.70
2022-08-04T15:16:29.237Z,3.90
2022-08-04T15:19:00.865Z,3.70
2022-08-04T15:21:30.124Z,4.00
2022-08-04T15:23:58.440Z,4.10
2022-08-04T15:26:44.668Z,3.70
2022-08-04T15:29:26.497Z,4.10
2022-08-04T15:32:05.740Z,4.00
2022-08-04T15:34:50.191Z,4.20
2022-08-04T15:37:32.255Z,4.30
2022-08-04T15:40:08.998Z,4.00
2022-08-04T15:42:47.696Z,3.80
2022-08-04T15:45:23.653Z,4.20
2022-08-04T15:48:13.061Z,4.00
2022-08-04T15:51:05.417Z,3.90
2022-08-04T15:54:02.865Z,4.00
2022-08-04T15:56:30.187Z,3.90
2022-08-04T15:58:58.566Z,4.00
2022-08-04T16:01:27.879Z,4.10
2022-08-04T16:03:59.687Z,4.00
2022-08-04T16:06:29.690Z,3.80
2022-08-04T16:09:03.468Z,3.60
2022-08-04T16:11:32.175Z,4.00
2022-08-04T16:13:59.011Z,3.80
2022-08-04T16:16:47.016Z,4.00
2022-08-04T16:19:55.682Z,3.90
2022-08-04T16:22:39.897Z,4.00
2022-08-04T16:25:09.296Z,4.10
2022-08-04T16:27:44.723Z,3.80
2022-08-04T16:30:15.001Z,3.70
2022-08-04T16:32:48.009Z,4.00
2022-08-04T16:35:28.667Z,3.80
2022-08-04T16:38:15.607Z,4.00
2022-08-04T16:40:46.013Z,4.00
2022-08-04T16:43:17.142Z,3.80
2022-08-04T16:45:46.873Z,4.10
2022-08-04T16:48:19.617Z,3.80
2022-08-04T16:51:15.161Z,3.90
2022-08-04T16:53:57.973Z,4.10
2022-08-04T16:56:34.522Z,3.80
2022-08-04T16:59:10.936Z,4.10
2022-08-04T17:01:46.555Z,3.70
2022-08-04T17:04:13.927Z,4.10
2022-08-04T17:06:44.460Z,4.50
2022-08-04T17:09:15.363Z,4.00
2022-08-04T17:11:44.416Z,3.80
2022-08-04T17:14:11.917Z,3.90
2022-08-04T17:16:42.938Z,4.20
2022-08-04T17:19:23.802Z,4.10
2022-08-04T17:22:10.319Z,4.10
2022-08-04T17:24:40.786Z,4.30
2022-08-04T17:28:19.165Z,4.20
2022-08-04T17:29:55.527Z,4.40
2022-08-04T17:32:23.349Z,4.10
2022-08-04T17:34:53.348Z,4.30
2022-08-04T17:37:39.235Z,4.40
2022-08-04T17:40:18.355Z,4.40
2022-08-04T17:44:05.007Z,4.60
2022-08-04T17:46:49.446Z,4.70
2022-08-04T17:49:18.552Z,5.60
2022-08-04T17:52:06.055Z,5.90
2022-08-04T17:54:40.394Z,6.00
2022-08-04T17:57:21.255Z,5.60
2022-08-04T17:59:57.953Z,6.40
2022-08-04T18:02:34.439Z,6.30
2022-08-04T18:05:12.265Z,6.00
2022-08-04T18:08:34.484Z,5.60
2022-08-04T18:10:51.978Z,5.80
2022-08-04T18:13:25.453Z,6.10
2022-08-04T18:16:05.043Z,5.70
2022-08-04T18:18:31.919Z,5.90
2022-08-04T18:21:03.234Z,5.50
2022-08-04T18:23:32.598Z,5.70
2022-08-04T18:26:02.164Z,5.50
2022-08-04T18:28:30.943Z,5.40
2022-08-04T18:31:00.085Z,5.90
2022-08-04T18:33:39.939Z,5.60
2022-08-04T18:36:33.870Z,5.90
2022-08-04T18:42:02.110Z,5.60
2022-08-04T18:44:32.478Z,5.60
2022-08-04T18:47:19.179Z,5.70
2022-08-04T18:50:58.688Z,5.40
2022-08-04T18:52:35.325Z,5.80
2022-08-04T18:55:09.699Z,5.60
2022-08-04T18:58:00.111Z,6.00
2022-08-04T19:00:25.733Z,6.00
2022-08-04T19:02:52.480Z,5.80
2022-08-04T19:05:19.562Z,5.90
2022-08-04T19:08:02.473Z,5.90
2022-08-04T19:10:32.746Z,6.10
2022-08-04T19:13:01.299Z,6.10
2022-08-04T19:15:34.404Z,5.90
2022-08-04T19:18:01.718Z,5.60
2022-08-04T19:20:29.747Z,6.10
2022-08-04T19:24:11.124Z,6.10
2022-08-04T19:26:01.242Z,6.70
2022-08-04T19:28:31.808Z,6.80
2022-08-04T19:31:03.858Z,6.70
2022-08-04T19:33:58.645Z,6.30
2022-08-04T19:36:17.500Z,6.30
2022-08-04T19:38:44.914Z,5.60
2022-08-04T19:41:14.734Z,5.70
2022-08-04T19:43:43.748Z,5.90
2022-08-04T19:46:12.196Z,5.70
2022-08-04T19:48:40.087Z,5.60
2022-08-04T19:51:07.799Z,5.80
2022-08-04T19:53:38.013Z,5.90
2022-08-04T19:56:09.762Z,5.90
2022-08-04T19:58:38.549Z,6.20
2022-08-04T20:01:05.135Z,6.40
2022-08-04T20:04:09.323Z,5.90
2022-08-04T20:06:37.701Z,6.80
2022-08-04T20:09:04.343Z,6.50
2022-08-04T20:11:50.867Z,6.20
2022-08-04T20:14:17.845Z,6.10
2022-08-04T20:16:46.541Z,6.80
2022-08-04T20:19:14.147Z,6.10
2022-08-04T20:21:55.641Z,6.10
2022-08-04T20:24:38.678Z,6.20
2022-08-04T20:27:11.773Z,5.90
2022-08-04T20:32:31.665Z,5.80
2022-08-04T20:34:59.047Z,6.10
2022-08-04T20:37:55.295Z,6.90
2022-08-04T20:40:14.628Z,6.90
2022-08-04T20:42:41.472Z,7.10
2022-08-04T20:45:16.338Z,6.90
2022-08-04T20:47:45.922Z,6.70
2022-08-04T20:50:30.334Z,7.20
2022-08-04T20:52:58.177Z,6.90
2022-08-04T20:55:25.579Z,6.90
2022-08-04T20:58:02.547Z,6.70
2022-08-04T21:00:30.410Z,6.40
2022-08-04T21:02:59.137Z,6.70
2022-08-04T21:05:26.573Z,7.60
2022-08-04T21:07:57.091Z,7.90
2022-08-04T21:10:27.521Z,7.30
2022-08-04T21:12:54.466Z,7.20
2022-08-04T21:15:25.671Z,7.70
2022-08-04T21:17:58.713Z,7.00
2022-08-04T21:20:32.305Z,7.00
2022-08-04T21:23:02.143Z,6.70
2022-08-04T21:25:54.599Z,7.60
2022-08-04T21:28:21.672Z,8.00
2022-08-04T21:30:53.988Z,6.90
2022-08-04T21:33:43.907Z,7.80
2022-08-04T21:36:11.949Z,7.90
2022-08-04T21:38:39.280Z,7.80
2022-08-04T21:41:08.885Z,7.00
2022-08-04T21:43:43.081Z,6.80
2022-08-04T21:46:11.452Z,7.10
2022-08-04T21:48:39.270Z,6.90
2022-08-04T21:51:59.196Z,6.10
2022-08-04T21:54:14.906Z,7.50
2022-08-04T21:56:50.676Z,7.80
2022-08-04T21:59:23.617Z,7.60
2022-08-04T22:01:57.206Z,7.30
2022-08-04T22:04:26.735Z,6.90
2022-08-04T22:06:53.419Z,7.50
2022-08-04T22:09:21.744Z,6.50
2022-08-04T22:11:50.622Z,6.70
2022-08-04T22:14:29.081Z,6.40
2022-08-04T22:17:01.134Z,6.80
2022-08-04T22:19:54.169Z,7.30
2022-08-04T22:22:25.741Z,7.40
2022-08-04T22:24:58.841Z,7.00
2022-08-04T22:27:47.600Z,7.40
2022-08-04T22:30:23.250Z,6.70
2022-08-04T22:32:50.412Z,7.50
2022-08-04T22:35:36.368Z,7.20
2022-08-04T22:38:23.029Z,7.10
2022-08-04T22:41:18.833Z,6.40
2022-08-04T22:43:46.149Z,7.80
2022-08-04T22:46:30.053Z,8.20
2022-08-04T22:48:57.509Z,8.10
2022-08-04T22:51:24.118Z,8.00
2022-08-04T22:53:54.657Z,7.90
2022-08-04T22:56:38.178Z,7.50
2022-08-04T22:59:06.905Z,7.10
2022-08-04T23:01:59.514Z,7.80
2022-08-04T23:04:24.330Z,7.50
2022-08-04T23:06:54.128Z,6.90
2022-08-04T23:09:21.509Z,6.60
2022-08-04T23:11:53.997Z,6.90
2022-08-04T23:14:29.494Z,6.70
2022-08-04T23:16:55.984Z,6.80
2022-08-04T23:19:24.728Z,6.80
2022-08-04T23:22:01.997Z,6.40
2022-08-04T23:24:30.016Z,6.80
2022-08-04T23:26:58.098Z,6.50
2022-08-04T23:29:25.382Z,6.90
2022-08-04T23:31:59.060Z,6.60
2022-08-04T23:34:26.981Z,6.70
2022-08-04T23:36:55.841Z,6.10
2022-08-04T23:39:25.883Z,5.80
2022-08-04T23:42:15.094Z,6.30
2022-08-04T23:44:47.520Z,7.30
2022-08-04T23:48:16.556Z,6.70
2022-08-04T23:50:01.652Z,6.00
2022-08-04T23:52:30.250Z,6.50
2022-08-04T23:54:59.466Z,6.00
2022-08-04T23:57:31.371Z,6.10
